Time;durP1;ratioP1;P1;durP2;ratioP2;P2;SDS_P1;SDS_P2;PMS_P1;PMS_P2;Temp;Humidity;BMP_temperature;BMP_pressure;BME280_temperature;BME280_humidity;BME280_pressure;Samples;Min_cycle;Max_cycle;Signal;HPM_P1;HPM_P2
2023/04/01 00:02:19;;;;;;;8.80;3.85;;;;;;;;;;4999773;28;20523;-80
2023/04/01 00:04:47;;;;;;;11.70;3.83;;;;;;;;;;4985863;28;20057;-80
2023/04/01 00:07:15;;;;;;;9.13;3.65;;;;;;;;;;4981939;28;20177;-80
2023/04/01 00:09:43;;;;;;;7.53;3.17;;;;;;;;;;4984059;28;20031;-80
2023/04/01 00:12:15;;;;;;;6.65;3.40;;;;;;;;;;4981303;28;20062;-80
2023/04/01 00:14:43;;;;;;;6.85;3.70;;;;;;;;;;4985190;28;20047;-80
2023/04/01 00:17:11;;;;;;;11.35;3.72;;;;;;;;;;4981582;28;20078;-80
2023/04/01 00:19:39;;;;;;;8.80;3.15;;;;;;;;;;5033224;28;20153;-80
2023/04/01 00:22:09;;;;;;;11.02;3.50;;;;;;;;;;4965355;28;20057;-80
2023/04/01 00:24:38;;;;;;;14.68;4.20;;;;;;;;;;4982715;28;20052;-80
2023/04/01 00:27:05;;;;;;;6.38;3.17;;;;;;;;;;4985868;28;20038;-80
2023/04/01 00:29:37;;;;;;;7.78;3.45;;;;;;;;;;4981929;28;20057;-80
2023/04/01 00:32:09;;;;;;;11.57;3.95;;;;;;;;;;4997727;28;20042;-80
2023/04/01 00:34:37;;;;;;;7.28;3.47;;;;;;;;;;4970016;28;20050;-80
2023/04/01 00:37:31;;;;;;;12.20;3.50;;;;;;;;;;4975694;28;20160;-80
2023/04/01 00:39:59;;;;;;;9.20;4.25;;;;;;;;;;4987283;28;20882;-80
2023/04/01 00:42:28;;;;;;;9.80;3.63;;;;;;;;;;4968885;28;20073;-80
2023/04/01 00:45:32;;;;;;;9.52;3.40;;;;;;;;;;5002679;28;20480;-80
2023/04/01 00:48:08;;;;;;;8.18;3.60;;;;;;;;;;4988233;28;20518;-80
2023/04/01 00:51:11;;;;;;;14.93;3.67;;;;;;;;;;4998879;28;20038;-80
2023/04/01 00:53:43;;;;;;;12.15;4.10;;;;;;;;;;4989123;28;20065;-80
2023/04/01 00:57:00;;;;;;;11.23;3.60;;;;;;;;;;4989587;28;20083;-80
2023/04/01 00:59:31;;;;;;;8.02;3.92;;;;;;;;;;4973698;28;20458;-80
2023/04/01 01:02:01;;;;;;;8.23;4.13;;;;;;;;;;4985040;28;20157;-80
2023/04/01 01:04:31;;;;;;;10.60;4.22;;;;;;;;;;4970573;28;20040;-80
2023/04/01 01:07:26;;;;;;;9.73;4.00;;;;;;;;;;4987631;28;20753;-80
2023/04/01 01:10:18;;;;;;;11.52;4.30;;;;;;;;;;4967274;28;20035;-80
2023/04/01 01:13:47;;;;;;;10.07;4.30;;;;;;;;;;4987484;28;20176;-80
2023/04/01 01:16:34;;;;;;;9.52;4.25;;;;;;;;;;5003816;28;20085;-80
2023/04/01 01:19:48;;;;;;;9.95;4.22;;;;;;;;;;5008131;28;20046;-80
2023/04/01 01:22:56;;;;;;;14.88;3.80;;;;;;;;;;5006843;28;20049;-80
2023/04/01 01:25:56;;;;;;;11.63;4.00;;;;;;;;;;4998096;28;20141;-80
2023/04/01 01:28:32;;;;;;;8.38;3.90;;;;;;;;;;4983712;28;20528;-80
2023/04/01 01:31:24;;;;;;;13.73;4.45;;;;;;;;;;4985946;28;20054;-80
2023/04/01 01:36:57;;;;;;;10.88;4.72;;;;;;;;;;5001848;28;20050;-80
2023/04/01 01:39:34;;;;;;;10.45;3.83;;;;;;;;;;4971873;28;20053;-80
2023/04/01 01:42:11;;;;;;;8.02;3.55;;;;;;;;;;4987129;28;20046;-80
2023/04/01 01:44:44;;;;;;;11.48;3.85;;;;;;;;;;4970475;28;20079;-80
2023/04/01 01:47:14;;;;;;;7.72;3.60;;;;;;;;;;4985613;28;20472;-80
2023/04/01 01:49:47;;;;;;;12.60;4.60;;;;;;;;;;4984368;28;20518;-80
2023/04/01 01:52:18;;;;;;;14.23;4.70;;;;;;;;;;5003615;28;20049;-80
2023/04/01 01:54:53;;;;;;;9.45;4.10;;;;;;;;;;5026984;28;20045;-81
2023/04/01 01:57:27;;;;;;;10.00;4.45;;;;;;;;;;5035570;28;20457;-80
2023/04/01 02:00:20;;;;;;;8.40;4.45;;;;;;;;;;5040871;28;20128;-80
2023/04/01 02:02:50;;;;;;;7.45;4.10;;;;;;;;;;4995583;28;20054;-80
2023/04/01 02:05:49;;;;;;;8.30;3.97;;;;;;;;;;4971476;28;20503;-80
2023/04/01 02:08:23;;;;;;;11.25;4.10;;;;;;;;;;4988627;28;20129;-80
2023/04/01 02:10:58;;;;;;;10.73;4.57;;;;;;;;;;4986374;28;20039;-80
2023/04/01 02:13:51;;;;;;;9.00;4.25;;;;;;;;;;4962005;28;20053;-80
2023/04/01 02:16:48;;;;;;;13.55;4.95;;;;;;;;;;4957638;28;20070;-80
2023/04/01 02:19:22;;;;;;;8.57;4.35;;;;;;;;;;4984170;28;20074;-80
2023/04/01 02:22:43;;;;;;;13.23;4.50;;;;;;;;;;4985880;28;20042;-80
2023/04/01 02:25:18;;;;;;;10.02;4.80;;;;;;;;;;4953854;28;20054;-81
2023/04/01 02:27:54;;;;;;;10.35;4.18;;;;;;;;;;4987142;28;20042;-80
2023/04/01 02:30:25;;;;;;;11.10;4.63;;;;;;;;;;5002939;28;20481;-80
2023/04/01 02:33:18;;;;;;;9.55;4.20;;;;;;;;;;4985819;28;20042;-81
2023/04/01 02:35:45;;;;;;;11.45;4.95;;;;;;;;;;4968490;28;20050;-80
2023/04/01 02:38:15;;;;;;;8.70;4.47;;;;;;;;;;4985918;28;20115;-80
2023/04/01 02:40:47;;;;;;;8.77;4.53;;;;;;;;;;4967160;28;20084;-80
2023/04/01 02:43:16;;;;;;;9.90;4.57;;;;;;;;;;4984533;28;20403;-80
2023/04/01 02:45:49;;;;;;;12.10;4.30;;;;;;;;;;5000620;28;20484;-80
2023/04/01 02:48:21;;;;;;;15.10;5.03;;;;;;;;;;4981240;28;20104;-80
2023/04/01 02:50:49;;;;;;;11.55;4.97;;;;;;;;;;4984298;28;20042;-80
2023/04/01 02:53:17;;;;;;;9.95;4.80;;;;;;;;;;4982867;28;20582;-80
2023/04/01 02:55:45;;;;;;;12.60;4.53;;;;;;;;;;4969059;28;20042;-80
2023/04/01 02:58:13;;;;;;;10.50;4.95;;;;;;;;;;4968688;28;20042;-80
2023/04/01 03:00:41;;;;;;;13.68;4.93;;;;;;;;;;4986752;28;20039;-80
2023/04/01 03:03:13;;;;;;;17.17;5.15;;;;;;;;;;4983239;28;20046;-80
2023/04/01 03:05:41;;;;;;;9.43;4.72;;;;;;;;;;4966637;28;20042;-80
2023/04/01 03:08:09;;;;;;;8.65;4.85;;;;;;;;;;4997706;28;20038;-80
2023/04/01 03:10:37;;;;;;;12.63;5.50;;;;;;;;;;4968340;28;20038;-80
2023/04/01 03:13:06;;;;;;;12.65;5.22;;;;;;;;;;4959658;28;20046;-81
2023/04/01 03:16:04;;;;;;;9.20;4.32;;;;;;;;;;4984740;28;20045;-80
2023/04/01 03:18:31;;;;;;;13.18;5.50;;;;;;;;;;4986193;28;20547;-80
2023/04/01 03:21:22;;;;;;;11.43;4.97;;;;;;;;;;4968937;28;20038;-80
2023/04/01 03:23:51;;;;;;;11.85;5.30;;;;;;;;;;4985510;28;20565;-80
2023/04/01 03:26:19;;;;;;;12.93;5.28;;;;;;;;;;4968381;28;20042;-80
2023/04/01 03:28:52;;;;;;;10.73;5.20;;;;;;;;;;4970322;28;20046;-80
2023/04/01 03:31:19;;;;;;;12.55;4.95;;;;;;;;;;4984068;28;20046;-80
2023/04/01 03:33:53;;;;;;;10.85;5.03;;;;;;;;;;4981450;28;20046;-80
2023/04/01 03:37:09;;;;;;;8.85;5.13;;;;;;;;;;4985349;28;20034;-80
2023/04/01 03:40:01;;;;;;;12.45;5.38;;;;;;;;;;4985135;28;20037;-80
2023/04/01 03:42:53;;;;;;;11.60;5.70;;;;;;;;;;4986040;28;20511;-80
2023/04/01 03:45:21;;;;;;;13.57;5.70;;;;;;;;;;4986531;28;20035;-80
2023/04/01 03:47:49;;;;;;;11.68;5.35;;;;;;;;;;4998875;28;20081;-80
2023/04/01 03:50:41;;;;;;;13.10;6.13;;;;;;;;;;4969553;28;20049;-80
2023/04/01 03:53:09;;;;;;;12.45;5.30;;;;;;;;;;4972381;28;20046;-80
2023/04/01 03:56:06;;;;;;;10.68;5.43;;;;;;;;;;4960298;28;20038;-80
2023/04/01 03:58:39;;;;;;;10.07;4.93;;;;;;;;;;4999353;28;20095;-80
2023/04/01 04:01:21;;;;;;;14.13;5.13;;;;;;;;;;4966201;28;20439;-80
2023/04/01 04:03:51;;;;;;;13.18;5.43;;;;;;;;;;4956045;28;20089;-80
2023/04/01 04:06:19;;;;;;;10.38;5.25;;;;;;;;;;4949814;28;20050;-80
2023/04/01 04:09:13;;;;;;;10.38;4.97;;;;;;;;;;4984486;28;20045;-80
2023/04/01 04:11:41;;;;;;;12.07;4.88;;;;;;;;;;4967650;28;20039;-80
2023/04/01 04:14:09;;;;;;;9.23;4.97;;;;;;;;;;4967483;28;20066;-80
2023/04/01 04:16:37;;;;;;;9.40;5.28;;;;;;;;;;4968888;28;20134;-80
2023/04/01 04:19:05;;;;;;;7.88;4.28;;;;;;;;;;4986933;28;20034;-80
2023/04/01 04:21:41;;;;;;;11.77;5.25;;;;;;;;;;4996258;28;20042;-80
2023/04/01 04:24:39;;;;;;;10.63;5.10;;;;;;;;;;4986991;28;20077;-80
2023/04/01 04:27:11;;;;;;;10.40;4.13;;;;;;;;;;4960679;28;20046;-80
2023/04/01 04:29:49;;;;;;;9.98;5.15;;;;;;;;;;4967679;28;20046;-81
2023/04/01 04:32:41;;;;;;;9.00;4.75;;;;;;;;;;4945478;28;20045;-80
2023/04/01 04:35:11;;;;;;;9.23;4.95;;;;;;;;;;4967530;28;20123;-80
2023/04/01 04:37:39;;;;;;;8.80;4.50;;;;;;;;;;4966668;28;20043;-80
2023/04/01 04:40:07;;;;;;;10.73;4.65;;;;;;;;;;4985989;28;20042;-80
2023/04/01 04:42:35;;;;;;;8.02;3.80;;;;;;;;;;4981954;28;20404;-80
2023/04/01 04:45:27;;;;;;;11.13;4.47;;;;;;;;;;4983373;28;20066;-80
2023/04/01 04:48:01;;;;;;;7.13;4.10;;;;;;;;;;4970382;28;20129;-80
2023/04/01 04:50:29;;;;;;;8.23;3.90;;;;;;;;;;4963881;28;20092;-80
2023/04/01 04:52:57;;;;;;;7.38;3.63;;;;;;;;;;4965799;28;20149;-80
2023/04/01 04:55:31;;;;;;;9.68;4.47;;;;;;;;;;4967370;28;20404;-80
2023/04/01 04:58:25;;;;;;;8.95;4.07;;;;;;;;;;4981949;28;20041;-80
2023/04/01 05:01:17;;;;;;;3.63;1.52;;;;;;;;;;4984965;28;20041;-80
2023/04/01 05:04:09;;;;;;;4.10;1.58;;;;;;;;;;4996709;28;20075;-81
2023/04/01 05:06:37;;;;;;;2.03;0.90;;;;;;;;;;4966812;28;20125;-80
2023/04/01 05:09:05;;;;;;;2.17;1.00;;;;;;;;;;4996191;28;20423;-80
2023/04/01 05:11:33;;;;;;;1.33;0.63;;;;;;;;;;4953690;28;20034;-80
2023/04/01 05:14:27;;;;;;;1.27;0.50;;;;;;;;;;4960594;28;20030;-80
2023/04/01 05:17:11;;;;;;;2.28;1.00;;;;;;;;;;4960724;28;20616;-80
2023/04/01 05:19:45;;;;;;;1.42;0.93;;;;;;;;;;4970078;28;20129;-80
2023/04/01 05:22:13;;;;;;;2.00;1.00;;;;;;;;;;4969789;28;20042;-80
2023/04/01 05:24:45;;;;;;;2.85;1.00;;;;;;;;;;4970138;28;20047;-80
2023/04/01 05:27:13;;;;;;;2.00;0.60;;;;;;;;;;4969046;28;20048;-80
2023/04/01 05:29:46;;;;;;;2.63;1.00;;;;;;;;;;4969782;28;20070;-80
2023/04/01 05:32:33;;;;;;;2.42;0.88;;;;;;;;;;4984220;28;20046;-81
2023/04/01 05:35:01;;;;;;;1.88;0.90;;;;;;;;;;4966880;28;20432;-80
2023/04/01 05:37:29;;;;;;;2.00;0.80;;;;;;;;;;4984803;28;20039;-80
2023/04/01 05:39:58;;;;;;;1.40;0.70;;;;;;;;;;4969535;28;20043;-80
2023/04/01 05:42:27;;;;;;;2.95;1.33;;;;;;;;;;4969448;28;20118;-80
2023/04/01 05:44:55;;;;;;;1.75;0.75;;;;;;;;;;4967682;28;20099;-80
2023/04/01 05:47:42;;;;;;;1.75;0.85;;;;;;;;;;4981665;28;20122;-80
2023/04/01 05:50:10;;;;;;;2.28;1.13;;;;;;;;;;4986090;28;20431;-80
2023/04/01 05:52:39;;;;;;;3.53;1.00;;;;;;;;;;4971497;28;20084;-80
2023/04/01 05:55:07;;;;;;;1.42;0.90;;;;;;;;;;4985898;28;20042;-80
2023/04/01 05:58:05;;;;;;;2.42;1.25;;;;;;;;;;4961984;28;20030;-80
2023/04/01 06:00:33;;;;;;;1.95;0.93;;;;;;;;;;4969516;28;20054;-80
2023/04/01 06:05:55;;;;;;;2.28;1.13;;;;;;;;;;4986453;28;20042;-80
2023/04/01 06:08:24;;;;;;;2.28;1.10;;;;;;;;;;4968834;28;20046;-80
2023/04/01 06:11:41;;;;;;;1.75;0.77;;;;;;;;;;4959976;28;20030;-80
2023/04/01 06:14:26;;;;;;;2.00;0.77;;;;;;;;;;4986961;28;20038;-80
2023/04/01 06:17:30;;;;;;;2.13;1.05;;;;;;;;;;4984658;28;20055;-81
2023/04/01 06:20:29;;;;;;;1.42;0.88;;;;;;;;;;4981367;28;20057;-80
2023/04/01 06:23:08;;;;;;;2.53;1.02;;;;;;;;;;4966433;28;20031;-80
2023/04/01 06:25:59;;;;;;;1.33;0.70;;;;;;;;;;4975992;28;20041;-80
2023/04/01 06:28:35;;;;;;;1.23;0.60;;;;;;;;;;4999277;28;20052;-80
2023/04/01 06:31:44;;;;;;;1.88;1.00;;;;;;;;;;4998438;28;20027;-80
2023/04/01 06:34:44;;;;;;;2.10;0.75;;;;;;;;;;4971577;28;20042;-80
2023/04/01 06:37:19;;;;;;;2.05;1.00;;;;;;;;;;5000875;28;20459;-80
2023/04/01 06:40:23;;;;;;;1.63;0.75;;;;;;;;;;4970022;28;20050;-80
2023/04/01 06:43:16;;;;;;;1.63;0.80;;;;;;;;;;4968299;28;20037;-80
2023/04/01 06:46:44;;;;;;;1.67;1.00;;;;;;;;;;4984897;28;20042;-80
2023/04/01 06:49:59;;;;;;;1.70;0.70;;;;;;;;;;4996212;28;20038;-80
2023/04/01 06:52:57;;;;;;;2.05;0.90;;;;;;;;;;4963032;28;20530;-80
2023/04/01 06:55:47;;;;;;;1.88;0.80;;;;;;;;;;4985459;28;20050;-80
2023/04/01 06:58:30;;;;;;;1.52;0.75;;;;;;;;;;4960153;28;20054;-80
2023/04/01 07:01:08;;;;;;;2.15;0.82;;;;;;;;;;4981460;28;20065;-80
2023/04/01 07:03:35;;;;;;;1.73;0.50;;;;;;;;;;4969796;28;20054;-80
2023/04/01 07:06:11;;;;;;;1.90;0.75;;;;;;;;;;4967635;28;20035;-80
2023/04/01 07:09:11;;;;;;;1.25;0.60;;;;;;;;;;4966549;28;20164;-80
2023/04/01 07:12:15;;;;;;;1.08;0.60;;;;;;;;;;4978476;28;20054;-79
2023/04/01 07:15:24;;;;;;;4.53;0.90;;;;;;;;;;4985258;28;20042;-80
2023/04/01 07:18:04;;;;;;;1.33;0.60;;;;;;;;;;4970085;28;20064;-79
2023/04/01 07:20:58;;;;;;;1.40;0.65;;;;;;;;;;4956176;28;20092;-80
2023/04/01 07:23:54;;;;;;;1.05;0.55;;;;;;;;;;4960133;28;20034;-80
2023/04/01 07:26:43;;;;;;;2.03;0.68;;;;;;;;;;4968407;28;20530;-79
2023/04/01 07:29:37;;;;;;;1.67;0.80;;;;;;;;;;4984547;28;20139;-80
2023/04/01 07:32:42;;;;;;;1.65;0.73;;;;;;;;;;4980745;28;20034;-80
2023/04/01 07:35:30;;;;;;;1.67;0.73;;;;;;;;;;4960207;28;20057;-80
2023/04/01 07:38:28;;;;;;;1.05;0.50;;;;;;;;;;4984090;28;20035;-80
2023/04/01 07:41:23;;;;;;;1.65;0.77;;;;;;;;;;4970916;28;20054;-80
2023/04/01 07:43:51;;;;;;;1.30;0.50;;;;;;;;;;4985805;28;20064;-80
2023/04/01 07:46:30;;;;;;;2.67;0.70;;;;;;;;;;4988255;28;20141;-80
2023/04/01 07:49:12;;;;;;;1.75;0.90;;;;;;;;;;4983693;28;20042;-80
2023/04/01 07:51:54;;;;;;;1.60;0.70;;;;;;;;;;4981503;28;20066;-80
2023/04/01 07:54:29;;;;;;;2.28;0.70;;;;;;;;;;4974743;28;20034;-80
2023/04/01 07:57:20;;;;;;;1.42;0.70;;;;;;;;;;4964369;28;20079;-80
2023/04/01 07:59:55;;;;;;;0.82;0.50;;;;;;;;;;4943733;28;20053;-80
2023/04/01 08:02:40;;;;;;;3.50;0.73;;;;;;;;;;4996732;28;20076;-80
2023/04/01 08:05:23;;;;;;;1.30;0.70;;;;;;;;;;4975212;28;20125;-80
2023/04/01 08:08:23;;;;;;;1.23;0.45;;;;;;;;;;4970697;28;20068;-80
2023/04/01 08:11:27;;;;;;;1.15;0.47;;;;;;;;;;4982464;28;20153;-80
2023/04/01 08:14:25;;;;;;;3.30;0.82;;;;;;;;;;4996055;28;20428;-80
2023/04/01 08:18:03;;;;;;;1.63;0.52;;;;;;;;;;4983419;28;20039;-80
2023/04/01 08:20:37;;;;;;;1.20;0.50;;;;;;;;;;4960910;28;20462;-80
2023/04/01 08:23:19;;;;;;;1.42;0.80;;;;;;;;;;4979523;28;20051;-80
2023/04/01 08:25:52;;;;;;;1.92;0.75;;;;;;;;;;4995463;28;20872;-80
2023/04/01 08:28:50;;;;;;;1.70;0.70;;;;;;;;;;4983755;28;20226;-80
2023/04/01 08:31:25;;;;;;;1.92;0.80;;;;;;;;;;4967441;28;20110;-80
2023/04/01 08:34:24;;;;;;;2.20;0.80;;;;;;;;;;4944610;28;20111;-80
2023/04/01 08:37:02;;;;;;;1.63;0.75;;;;;;;;;;4971718;28;20163;-80
2023/04/01 08:39:42;;;;;;;0.98;0.52;;;;;;;;;;4977591;28;20129;-81
2023/04/01 08:42:27;;;;;;;1.92;0.77;;;;;;;;;;4952163;28;20045;-81
2023/04/01 08:45:16;;;;;;;1.50;0.80;;;;;;;;;;4966561;28;20113;-80
2023/04/01 08:48:10;;;;;;;1.67;0.80;;;;;;;;;;4951466;28;20401;-80
2023/04/01 08:50:54;;;;;;;1.58;0.82;;;;;;;;;;4986225;28;20358;-80
2023/04/01 08:53:46;;;;;;;2.00;0.50;;;;;;;;;;4969943;28;20171;-80
2023/04/01 08:56:30;;;;;;;0.70;0.30;;;;;;;;;;4969229;28;20038;-80
2023/04/01 08:59:51;;;;;;;1.35;0.70;;;;;;;;;;4970195;28;20034;-80
2023/04/01 09:03:03;;;;;;;1.23;0.45;;;;;;;;;;4983363;28;20135;-80
2023/04/01 09:05:41;;;;;;;2.35;0.60;;;;;;;;;;5002053;28;20042;-80
2023/04/01 09:08:14;;;;;;;0.38;0.20;;;;;;;;;;4981757;28;20121;-80
2023/04/01 09:11:32;;;;;;;1.15;0.70;;;;;;;;;;5001324;28;20150;-80
2023/04/01 09:14:57;;;;;;;1.60;0.52;;;;;;;;;;4983877;28;20508;-79
2023/04/01 09:18:24;;;;;;;1.13;0.50;;;;;;;;;;4985202;28;20041;-80
2023/04/01 09:21:19;;;;;;;1.52;0.40;;;;;;;;;;5000713;28;20123;-80
2023/04/01 09:24:12;;;;;;;1.67;0.65;;;;;;;;;;4969145;28;20046;-80
2023/04/01 09:27:06;;;;;;;1.65;0.85;;;;;;;;;;4985868;28;20049;-80
2023/04/01 09:29:54;;;;;;;1.73;0.65;;;;;;;;;;5045048;28;20042;-80
2023/04/01 09:33:05;;;;;;;1.17;0.65;;;;;;;;;;4980243;28;20125;-80
2023/04/01 09:36:11;;;;;;;1.48;0.70;;;;;;;;;;4976685;28;20056;-79
2023/04/01 09:38:47;;;;;;;1.48;0.73;;;;;;;;;;4963704;28;20129;-80
2023/04/01 09:41:48;;;;;;;2.53;0.70;;;;;;;;;;4983810;28;20563;-80
2023/04/01 09:44:39;;;;;;;1.25;0.75;;;;;;;;;;4959707;28;20050;-80
2023/04/01 09:47:39;;;;;;;1.75;0.70;;;;;;;;;;4966514;28;20049;-80
2023/04/01 09:50:32;;;;;;;2.53;1.20;;;;;;;;;;4966703;28;20038;-80
2023/04/01 09:53:14;;;;;;;1.45;0.73;;;;;;;;;;4975148;28;20126;-80
2023/04/01 09:56:08;;;;;;;2.67;0.82;;;;;;;;;;4979875;28;20053;-79
2023/04/01 09:58:56;;;;;;;3.47;0.60;;;;;;;;;;4966446;28;20035;-80
2023/04/01 10:02:20;;;;;;;1.38;0.70;;;;;;;;;;4983268;28;20046;-79
2023/04/01 10:05:30;;;;;;;1.38;0.57;;;;;;;;;;4948617;28;20049;-80
2023/04/01 10:08:37;;;;;;;1.00;0.50;;;;;;;;;;4980686;28;20042;-79
2023/04/01 10:11:28;;;;;;;1.63;0.70;;;;;;;;;;5002982;28;20496;-80
2023/04/01 10:14:15;;;;;;;2.15;0.55;;;;;;;;;;4987132;28;20050;-80
2023/04/01 10:16:52;;;;;;;2.30;0.60;;;;;;;;;;4987469;28;20057;-80
2023/04/01 10:20:02;;;;;;;1.02;0.50;;;;;;;;;;5005062;28;20092;-80
2023/04/01 10:23:15;;;;;;;1.10;0.50;;;;;;;;;;4968983;28;20057;-81
2023/04/01 10:26:18;;;;;;;0.98;0.47;;;;;;;;;;5004957;28;20050;-80
2023/04/01 10:29:36;;;;;;;0.63;0.30;;;;;;;;;;5000667;28;20049;-80
2023/04/01 10:32:29;;;;;;;1.33;0.50;;;;;;;;;;4987890;28;20567;-80
2023/04/01 10:35:31;;;;;;;1.10;0.45;;;;;;;;;;5002786;28;20050;-80
2023/04/01 10:38:44;;;;;;;0.65;0.30;;;;;;;;;;4986016;28;20120;-80
2023/04/01 10:41:28;;;;;;;0.88;0.30;;;;;;;;;;4997854;28;20450;-80
2023/04/01 10:44:21;;;;;;;1.23;0.60;;;;;;;;;;4982130;28;20045;-80
2023/04/01 10:47:11;;;;;;;0.60;0.35;;;;;;;;;;4981293;28;20069;-81
2023/04/01 10:50:08;;;;;;;1.25;0.68;;;;;;;;;;4966551;28;20042;-81
2023/04/01 10:53:19;;;;;;;0.75;0.50;;;;;;;;;;4974854;28;20042;-82
2023/04/01 10:56:10;;;;;;;2.05;0.55;;;;;;;;;;4982570;28;20553;-82
2023/04/01 10:59:43;;;;;;;1.85;0.30;;;;;;;;;;4983310;28;20034;-82
2023/04/01 11:03:17;;;;;;;1.60;0.77;;;;;;;;;;4967425;28;20127;-82
2023/04/01 11:06:28;;;;;;;1.80;0.80;;;;;;;;;;4981595;28;20043;-82
2023/04/01 11:10:07;;;;;;;0.95;0.50;;;;;;;;;;4995893;28;20377;-82
2023/04/01 11:12:50;;;;;;;1.42;0.65;;;;;;;;;;4948834;28;20051;-82
2023/04/01 11:15:48;;;;;;;1.40;0.77;;;;;;;;;;4942723;28;20647;-82
2023/04/01 11:18:25;;;;;;;2.03;0.98;;;;;;;;;;4918115;28;20051;-81
2023/04/01 11:21:30;;;;;;;1.80;0.90;;;;;;;;;;4960774;28;20163;-82
2023/04/01 11:24:01;;;;;;;2.58;0.93;;;;;;;;;;4944131;28;20495;-82
2023/04/01 11:26:59;;;;;;;2.20;0.95;;;;;;;;;;4947216;28;20043;-82
2023/04/01 11:29:48;;;;;;;2.17;0.70;;;;;;;;;;4947435;28;20070;-82
2023/04/01 11:32:45;;;;;;;2.92;1.17;;;;;;;;;;4947048;28;20050;-82
2023/04/01 11:35:51;;;;;;;2.30;1.10;;;;;;;;;;4948871;28;20502;-82
2023/04/01 11:39:02;;;;;;;2.00;0.93;;;;;;;;;;4885374;29;20053;-82
2023/04/01 11:42:13;;;;;;;2.78;1.23;;;;;;;;;;4851459;29;20069;-81
2023/04/01 11:45:37;;;;;;;3.38;1.58;;;;;;;;;;4852352;29;20041;-82
2023/04/01 11:48:27;;;;;;;3.95;1.52;;;;;;;;;;4852197;29;20089;-82
2023/04/01 11:51:30;;;;;;;3.75;1.88;;;;;;;;;;4909420;29;20050;-82
2023/04/01 11:54:17;;;;;;;4.47;1.92;;;;;;;;;;4926302;29;20086;-82
2023/04/01 11:57:10;;;;;;;4.18;1.90;;;;;;;;;;4920263;29;20506;-82
2023/04/01 12:00:15;;;;;;;3.05;1.33;;;;;;;;;;4935216;28;20055;-82
2023/04/01 12:03:30;;;;;;;5.28;2.50;;;;;;;;;;4914242;29;20059;-82
2023/04/01 12:06:21;;;;;;;5.13;2.15;;;;;;;;;;4925337;29;20596;-82
2023/04/01 12:09:11;;;;;;;4.10;2.00;;;;;;;;;;4978450;28;20058;-82
2023/04/01 12:11:55;;;;;;;5.95;1.83;;;;;;;;;;5019939;28;20080;-82
2023/04/01 12:14:44;;;;;;;4.53;2.15;;;;;;;;;;5021194;28;20033;-82
2023/04/01 12:17:27;;;;;;;3.70;1.85;;;;;;;;;;5020045;28;20053;-82
2023/04/01 12:20:22;;;;;;;5.50;2.22;;;;;;;;;;4988629;28;20420;-82
2023/04/01 12:23:38;;;;;;;4.60;2.20;;;;;;;;;;4984824;28;20034;-82
2023/04/01 12:26:11;;;;;;;3.72;1.92;;;;;;;;;;5027322;28;20494;-82
2023/04/01 12:28:50;;;;;;;3.92;2.25;;;;;;;;;;5029484;28;20530;-82
2023/04/01 12:31:50;;;;;;;4.40;1.60;;;;;;;;;;5046103;28;20106;-82
2023/04/01 12:34:42;;;;;;;5.38;2.17;;;;;;;;;;5030495;28;20056;-82
2023/04/01 12:37:47;;;;;;;4.10;1.98;;;;;;;;;;5029163;28;20067;-82
2023/04/01 12:40:44;;;;;;;4.30;2.05;;;;;;;;;;5045546;28;20049;-82
2023/04/01 12:43:35;;;;;;;6.63;2.13;;;;;;;;;;4966577;28;20533;-83
2023/04/01 12:46:15;;;;;;;5.65;2.33;;;;;;;;;;4967844;28;20518;-82
2023/04/01 12:48:48;;;;;;;4.55;1.92;;;;;;;;;;4967376;28;20078;-81
2023/04/01 12:51:54;;;;;;;4.07;1.77;;;;;;;;;;4967345;28;20042;-81
2023/04/01 12:58:24;;;;;;;3.65;1.60;;;;;;;;;;4965895;28;20505;-82
2023/04/01 13:01:44;;;;;;;3.25;0.98;;;;;;;;;;4947853;28;20030;-81
2023/04/01 13:04:35;;;;;;;5.10;1.88;;;;;;;;;;4953589;28;20052;-81
2023/04/01 13:07:24;;;;;;;5.18;1.83;;;;;;;;;;4954335;28;20058;-81
2023/04/01 13:10:00;;;;;;;4.57;1.70;;;;;;;;;;4908944;28;20052;-81
2023/04/01 13:12:27;;;;;;;6.68;1.70;;;;;;;;;;4946207;28;20062;-81
2023/04/01 13:15:04;;;;;;;5.05;1.80;;;;;;;;;;4927616;28;20073;-82
2023/04/01 13:17:41;;;;;;;4.28;1.90;;;;;;;;;;4911854;28;20045;-81
2023/04/01 13:20:48;;;;;;;6.40;2.25;;;;;;;;;;4948562;28;20047;-80
2023/04/01 13:23:44;;;;;;;3.53;1.83;;;;;;;;;;4976109;28;20049;-81
2023/04/01 13:26:27;;;;;;;6.05;1.63;;;;;;;;;;4963952;28;20058;-81
2023/04/01 13:29:10;;;;;;;6.60;2.33;;;;;;;;;;5000043;28;20084;-80
2023/04/01 13:32:05;;;;;;;4.10;1.70;;;;;;;;;;4986538;28;20096;-81
2023/04/01 13:35:16;;;;;;;7.95;1.63;;;;;;;;;;4980485;28;20034;-81
2023/04/01 13:38:14;;;;;;;5.57;2.10;;;;;;;;;;4986294;28;20057;-81
2023/04/01 13:41:08;;;;;;;3.50;1.95;;;;;;;;;;4960569;28;20157;-82
2023/04/01 13:43:39;;;;;;;8.15;2.58;;;;;;;;;;4999864;28;20074;-82
2023/04/01 13:46:26;;;;;;;5.82;2.63;;;;;;;;;;4967000;28;20042;-81
2023/04/01 13:49:17;;;;;;;3.67;1.65;;;;;;;;;;4995449;28;20096;-81
2023/04/01 13:52:19;;;;;;;2.00;1.13;;;;;;;;;;4984272;28;20042;-81
2023/04/01 13:55:06;;;;;;;7.50;2.63;;;;;;;;;;4983807;28;20043;-81
2023/04/01 13:58:07;;;;;;;5.57;2.20;;;;;;;;;;4970012;28;20057;-82
2023/04/01 14:01:09;;;;;;;6.90;2.80;;;;;;;;;;4976085;28;20484;-82
2023/04/01 14:04:04;;;;;;;2.35;1.33;;;;;;;;;;4971260;28;20565;-81
2023/04/01 14:06:39;;;;;;;6.25;1.90;;;;;;;;;;4969400;28;20676;-82
2023/04/01 14:09:30;;;;;;;4.75;2.00;;;;;;;;;;4983383;28;20505;-82
2023/04/01 14:12:20;;;;;;;6.03;2.05;;;;;;;;;;4982762;28;20115;-82
2023/04/01 14:15:11;;;;;;;5.85;2.08;;;;;;;;;;4998461;28;20043;-82
2023/04/01 14:17:50;;;;;;;5.53;2.28;;;;;;;;;;4986133;28;20042;-82
2023/04/01 14:20:34;;;;;;;5.82;2.42;;;;;;;;;;4966805;28;20038;-80
2023/04/01 14:23:23;;;;;;;5.22;2.40;;;;;;;;;;4966672;28;20091;-81
2023/04/01 14:26:15;;;;;;;6.47;2.65;;;;;;;;;;4989466;28;20038;-81
2023/04/01 14:29:01;;;;;;;4.93;2.25;;;;;;;;;;4987363;28;20515;-82
2023/04/01 14:32:07;;;;;;;8.30;2.38;;;;;;;;;;4985420;28;20069;-82
2023/04/01 14:35:00;;;;;;;8.15;2.50;;;;;;;;;;4998305;28;20050;-81
2023/04/01 14:37:38;;;;;;;4.72;2.30;;;;;;;;;;4960691;28;20068;-82
2023/04/01 14:40:39;;;;;;;7.32;2.22;;;;;;;;;;4984184;28;20537;-81
2023/04/01 14:43:41;;;;;;;8.02;2.40;;;;;;;;;;4981529;28;20026;-82
2023/04/01 14:46:22;;;;;;;3.08;1.63;;;;;;;;;;4981642;28;20137;-81
2023/04/01 14:48:53;;;;;;;5.28;2.47;;;;;;;;;;4965012;28;20082;-82
2023/04/01 14:51:41;;;;;;;8.40;3.25;;;;;;;;;;4965967;28;20082;-82
2023/04/01 14:54:11;;;;;;;4.85;2.53;;;;;;;;;;4985402;28;20389;-82
2023/04/01 14:56:42;;;;;;;5.20;2.20;;;;;;;;;;4990128;28;20091;-82
2023/04/01 14:59:21;;;;;;;7.40;3.15;;;;;;;;;;4968446;28;20050;-81
2023/04/01 15:01:59;;;;;;;7.47;3.15;;;;;;;;;;4979763;28;20042;-82
2023/04/01 15:05:15;;;;;;;9.85;3.80;;;;;;;;;;4985007;28;20090;-82
2023/04/01 15:07:57;;;;;;;6.32;3.15;;;;;;;;;;4972093;28;20058;-81
2023/04/01 15:10:44;;;;;;;5.68;2.63;;;;;;;;;;4985200;28;20046;-82
2023/04/01 15:13:50;;;;;;;12.95;3.33;;;;;;;;;;4994441;28;20041;-82
2023/04/01 15:17:14;;;;;;;10.25;3.40;;;;;;;;;;4984053;28;20052;-82
2023/04/01 15:20:24;;;;;;;8.95;3.08;;;;;;;;;;4918359;29;20044;-82
2023/04/01 15:23:33;;;;;;;7.60;3.42;;;;;;;;;;4919893;28;20051;-82
2023/04/01 15:26:27;;;;;;;8.07;3.10;;;;;;;;;;4917906;28;20052;-82
2023/04/01 15:29:06;;;;;;;7.95;2.63;;;;;;;;;;4916642;28;20067;-81
2023/04/01 15:32:09;;;;;;;7.35;3.25;;;;;;;;;;4904710;28;20054;-82
2023/04/01 15:35:03;;;;;;;8.20;3.05;;;;;;;;;;4914869;29;20140;-82
2023/04/01 15:38:03;;;;;;;9.38;3.33;;;;;;;;;;4918982;28;20500;-82
2023/04/01 15:40:45;;;;;;;6.65;2.00;;;;;;;;;;4901438;29;20142;-82
2023/04/01 15:43:39;;;;;;;8.98;2.95;;;;;;;;;;4906409;28;20047;-82
2023/04/01 15:46:30;;;;;;;6.32;3.15;;;;;;;;;;4890229;29;20518;-82
2023/04/01 15:49:22;;;;;;;9.45;4.05;;;;;;;;;;4918624;28;20143;-82
2023/04/01 15:52:01;;;;;;;9.20;3.53;;;;;;;;;;4965929;28;20066;-82
2023/04/01 15:55:11;;;;;;;8.30;3.50;;;;;;;;;;5000479;28;20023;-82
2023/04/01 15:58:03;;;;;;;9.68;3.17;;;;;;;;;;4994967;28;20129;-82
2023/04/01 16:00:46;;;;;;;12.50;4.28;;;;;;;;;;4985280;28;20042;-82
2023/04/01 16:03:25;;;;;;;11.90;3.60;;;;;;;;;;4985409;28;20035;-82
2023/04/01 16:06:11;;;;;;;6.43;2.88;;;;;;;;;;4983869;28;20119;-82
2023/04/01 16:12:35;;;;;;;;;;;;;;;;;;4982089;28;20031;-83
2023/04/01 16:15:50;;;;;;;6.45;2.70;;;;;;;;;;4983715;28;20326;-83
2023/04/01 16:18:45;;;;;;;5.80;2.33;;;;;;;;;;4979359;28;20050;-83
2023/04/01 16:21:35;;;;;;;6.57;3.55;;;;;;;;;;4998776;28;20492;-83
2023/04/01 16:24:22;;;;;;;10.38;3.55;;;;;;;;;;4981839;28;20084;-82
2023/04/01 16:27:29;;;;;;;6.82;2.78;;;;;;;;;;4968100;28;20166;-83
2023/04/01 16:30:43;;;;;;;9.18;4.05;;;;;;;;;;4981437;28;20116;-83
2023/04/01 16:33:31;;;;;;;9.18;3.63;;;;;;;;;;4977526;28;20042;-82
2023/04/01 16:36:10;;;;;;;13.68;5.20;;;;;;;;;;4984593;28;20529;-83
2023/04/01 16:39:21;;;;;;;6.05;3.90;;;;;;;;;;4979440;28;20510;-83
2023/04/01 16:42:32;;;;;;;7.93;3.60;;;;;;;;;;4982945;28;20467;-83
2023/04/01 16:45:43;;;;;;;9.60;2.35;;;;;;;;;;4983403;28;20030;-82
2023/04/01 16:48:57;;;;;;;7.95;3.63;;;;;;;;;;4947661;28;20057;-83
2023/04/01 16:51:32;;;;;;;9.10;3.40;;;;;;;;;;4998202;28;20042;-83
2023/04/01 16:54:27;;;;;;;8.65;3.10;;;;;;;;;;4984529;28;20122;-83
2023/04/01 16:57:01;;;;;;;8.35;3.50;;;;;;;;;;4954402;28;20062;-83